sensor_id;sensor_type;location;lat;lon;timestamp;P1;durP1;ratioP1;P2;durP2;ratioP2
51560;SDS011;37654;51.262;17.058;2023-02-24T00:00:20;76.25;;;43.85;;
51560;SDS011;37654;51.262;17.058;2023-02-24T00:02:56;79.70;;;43.63;;
51560;SDS011;37654;51.262;17.058;2023-02-24T00:05:21;77.43;;;43.83;;
51560;SDS011;37654;51.262;17.058;2023-02-24T00:07:47;83.00;;;48.15;;
51560;SDS011;37654;51.262;17.058;2023-02-24T00:10:13;76.65;;;44.75;;
51560;SDS011;37654;51.262;17.058;2023-02-24T00:12:43;72.60;;;43.15;;
51560;SDS011;37654;51.262;17.058;2023-02-24T00:15:09;85.13;;;45.55;;
51560;SDS011;37654;51.262;17.058;2023-02-24T00:17:35;89.13;;;45.50;;
51560;SDS011;37654;51.262;17.058;2023-02-24T00:20:02;85.07;;;44.65;;
51560;SDS011;37654;51.262;17.058;2023-02-24T00:22:32;78.43;;;42.38;;
51560;SDS011;37654;51.262;17.058;2023-02-24T00:24:57;77.93;;;46.67;;
51560;SDS011;37654;51.262;17.058;2023-02-24T00:27:26;85.50;;;48.97;;
51560;SDS011;37654;51.262;17.058;2023-02-24T00:29:52;79.13;;;45.63;;
51560;SDS011;37654;51.262;17.058;2023-02-24T00:32:17;79.88;;;44.50;;
51560;SDS011;37654;51.262;17.058;2023-02-24T00:34:42;80.07;;;43.40;;
51560;SDS011;37654;51.262;17.058;2023-02-24T00:37:08;80.13;;;45.80;;
51560;SDS011;37654;51.262;17.058;2023-02-24T00:39:34;81.80;;;46.40;;
51560;SDS011;37654;51.262;17.058;2023-02-24T00:42:01;91.93;;;48.35;;
51560;SDS011;37654;51.262;17.058;2023-02-24T00:44:34;83.32;;;45.55;;
51560;SDS011;37654;51.262;17.058;2023-02-24T00:47:00;77.43;;;42.65;;
51560;SDS011;37654;51.262;17.058;2023-02-24T00:49:26;78.32;;;46.15;;
51560;SDS011;37654;51.262;17.058;2023-02-24T00:51:53;78.40;;;41.70;;
51560;SDS011;37654;51.262;17.058;2023-02-24T00:54:18;81.88;;;44.28;;
51560;SDS011;37654;51.262;17.058;2023-02-24T00:56:45;78.90;;;40.78;;
51560;SDS011;37654;51.262;17.058;2023-02-24T00:59:12;72.38;;;40.75;;
51560;SDS011;37654;51.262;17.058;2023-02-24T01:01:38;75.07;;;42.47;;
51560;SDS011;37654;51.262;17.058;2023-02-24T01:04:04;76.03;;;43.88;;
51560;SDS011;37654;51.262;17.058;2023-02-24T01:06:30;70.00;;;41.78;;
51560;SDS011;37654;51.262;17.058;2023-02-24T01:08:56;74.85;;;41.63;;
51560;SDS011;37654;51.262;17.058;2023-02-24T01:11:25;85.53;;;45.67;;
51560;SDS011;37654;51.262;17.058;2023-02-24T01:14:10;77.85;;;43.40;;
51560;SDS011;37654;51.262;17.058;2023-02-24T01:16:35;84.03;;;46.25;;
51560;SDS011;37654;51.262;17.058;2023-02-24T01:19:01;77.15;;;44.08;;
51560;SDS011;37654;51.262;17.058;2023-02-24T01:21:27;79.55;;;44.45;;
51560;SDS011;37654;51.262;17.058;2023-02-24T01:23:52;83.50;;;48.58;;
51560;SDS011;37654;51.262;17.058;2023-02-24T01:26:18;87.03;;;49.10;;
51560;SDS011;37654;51.262;17.058;2023-02-24T01:28:44;84.25;;;48.08;;
51560;SDS011;37654;51.262;17.058;2023-02-24T01:31:14;87.18;;;47.47;;
51560;SDS011;37654;51.262;17.058;2023-02-24T01:33:42;87.20;;;49.08;;
51560;SDS011;37654;51.262;17.058;2023-02-24T01:36:16;83.82;;;47.30;;
51560;SDS011;37654;51.262;17.058;2023-02-24T01:38:42;86.35;;;49.17;;
51560;SDS011;37654;51.262;17.058;2023-02-24T01:41:09;84.90;;;47.83;;
51560;SDS011;37654;51.262;17.058;2023-02-24T01:46:14;81.97;;;46.45;;
51560;SDS011;37654;51.262;17.058;2023-02-24T01:48:41;88.30;;;44.60;;
51560;SDS011;37654;51.262;17.058;2023-02-24T01:51:07;87.45;;;50.42;;
51560;SDS011;37654;51.262;17.058;2023-02-24T01:53:33;91.00;;;50.53;;
51560;SDS011;37654;51.262;17.058;2023-02-24T01:55:58;91.85;;;50.25;;
51560;SDS011;37654;51.262;17.058;2023-02-24T01:58:25;93.78;;;51.05;;
51560;SDS011;37654;51.262;17.058;2023-02-24T02:00:51;89.13;;;46.78;;
51560;SDS011;37654;51.262;17.058;2023-02-24T02:03:22;94.53;;;51.45;;
51560;SDS011;37654;51.262;17.058;2023-02-24T02:05:51;90.68;;;47.30;;
51560;SDS011;37654;51.262;17.058;2023-02-24T02:08:17;91.30;;;46.92;;
51560;SDS011;37654;51.262;17.058;2023-02-24T02:10:43;94.18;;;47.83;;
51560;SDS011;37654;51.262;17.058;2023-02-24T02:13:09;86.40;;;46.38;;
51560;SDS011;37654;51.262;17.058;2023-02-24T02:15:39;93.85;;;46.15;;
51560;SDS011;37654;51.262;17.058;2023-02-24T02:18:49;89.95;;;48.08;;
51560;SDS011;37654;51.262;17.058;2023-02-24T02:41:29;84.95;;;47.25;;
51560;SDS011;37654;51.262;17.058;2023-02-24T02:46:46;102.60;;;49.25;;
51560;SDS011;37654;51.262;17.058;2023-02-24T02:51:54;88.47;;;46.30;;
51560;SDS011;37654;51.262;17.058;2023-02-24T02:54:25;95.63;;;44.58;;
51560;SDS011;37654;51.262;17.058;2023-02-24T02:57:14;99.03;;;47.30;;
51560;SDS011;37654;51.262;17.058;2023-02-24T02:59:39;96.65;;;46.90;;
51560;SDS011;37654;51.262;17.058;2023-02-24T03:02:07;95.93;;;50.13;;
51560;SDS011;37654;51.262;17.058;2023-02-24T03:04:44;100.25;;;50.65;;
51560;SDS011;37654;51.262;17.058;2023-02-24T03:07:11;95.65;;;47.20;;
51560;SDS011;37654;51.262;17.058;2023-02-24T03:09:39;97.05;;;49.95;;
51560;SDS011;37654;51.262;17.058;2023-02-24T03:12:09;101.20;;;51.17;;
51560;SDS011;37654;51.262;17.058;2023-02-24T03:14:38;98.50;;;47.38;;
51560;SDS011;37654;51.262;17.058;2023-02-24T03:17:08;99.70;;;48.38;;
51560;SDS011;37654;51.262;17.058;2023-02-24T03:19:36;112.60;;;53.90;;
51560;SDS011;37654;51.262;17.058;2023-02-24T03:22:10;97.95;;;50.08;;
51560;SDS011;37654;51.262;17.058;2023-02-24T03:24:36;101.93;;;48.05;;
51560;SDS011;37654;51.262;17.058;2023-02-24T03:28:04;107.07;;;52.08;;
51560;SDS011;37654;51.262;17.058;2023-02-24T03:30:03;104.85;;;52.70;;
51560;SDS011;37654;51.262;17.058;2023-02-24T03:32:35;103.93;;;53.40;;
51560;SDS011;37654;51.262;17.058;2023-02-24T03:37:33;121.38;;;55.50;;
51560;SDS011;37654;51.262;17.058;2023-02-24T03:39:59;105.10;;;50.95;;
51560;SDS011;37654;51.262;17.058;2023-02-24T03:42:29;110.15;;;53.83;;
51560;SDS011;37654;51.262;17.058;2023-02-24T03:44:55;105.60;;;49.30;;
51560;SDS011;37654;51.262;17.058;2023-02-24T03:47:24;108.97;;;51.65;;
51560;SDS011;37654;51.262;17.058;2023-02-24T03:49:50;108.60;;;51.78;;
51560;SDS011;37654;51.262;17.058;2023-02-24T04:02:21;112.10;;;50.33;;
51560;SDS011;37654;51.262;17.058;2023-02-24T04:04:58;98.50;;;46.20;;
51560;SDS011;37654;51.262;17.058;2023-02-24T04:15:18;106.22;;;49.83;;
51560;SDS011;37654;51.262;17.058;2023-02-24T04:17:46;109.18;;;48.75;;
51560;SDS011;37654;51.262;17.058;2023-02-24T04:20:13;111.57;;;54.63;;
51560;SDS011;37654;51.262;17.058;2023-02-24T04:22:46;100.10;;;49.60;;
51560;SDS011;37654;51.262;17.058;2023-02-24T04:25:16;110.15;;;50.25;;
51560;SDS011;37654;51.262;17.058;2023-02-24T04:27:43;113.70;;;50.72;;
51560;SDS011;37654;51.262;17.058;2023-02-24T04:30:09;107.35;;;50.03;;
51560;SDS011;37654;51.262;17.058;2023-02-24T04:32:36;101.88;;;46.67;;
51560;SDS011;37654;51.262;17.058;2023-02-24T04:35:05;109.63;;;48.35;;
51560;SDS011;37654;51.262;17.058;2023-02-24T04:37:31;113.72;;;53.67;;
51560;SDS011;37654;51.262;17.058;2023-02-24T04:39:59;97.45;;;47.60;;
51560;SDS011;37654;51.262;17.058;2023-02-24T04:42:25;100.65;;;45.30;;
51560;SDS011;37654;51.262;17.058;2023-02-24T04:44:50;116.63;;;52.00;;
51560;SDS011;37654;51.262;17.058;2023-02-24T04:47:17;117.45;;;47.75;;
51560;SDS011;37654;51.262;17.058;2023-02-24T04:49:42;112.60;;;51.97;;
51560;SDS011;37654;51.262;17.058;2023-02-24T04:52:08;107.40;;;46.13;;
51560;SDS011;37654;51.262;17.058;2023-02-24T04:54:34;108.80;;;50.53;;
51560;SDS011;37654;51.262;17.058;2023-02-24T04:56:59;96.47;;;45.80;;
51560;SDS011;37654;51.262;17.058;2023-02-24T04:59:25;110.18;;;49.92;;
51560;SDS011;37654;51.262;17.058;2023-02-24T05:01:51;108.82;;;47.35;;
51560;SDS011;37654;51.262;17.058;2023-02-24T05:04:18;111.55;;;46.50;;
51560;SDS011;37654;51.262;17.058;2023-02-24T05:06:44;110.72;;;45.63;;
51560;SDS011;37654;51.262;17.058;2023-02-24T05:09:13;117.78;;;50.65;;
51560;SDS011;37654;51.262;17.058;2023-02-24T05:11:40;108.10;;;46.35;;
51560;SDS011;37654;51.262;17.058;2023-02-24T05:14:06;116.38;;;49.70;;
51560;SDS011;37654;51.262;17.058;2023-02-24T05:16:32;126.57;;;49.33;;
51560;SDS011;37654;51.262;17.058;2023-02-24T05:18:57;115.28;;;51.28;;
51560;SDS011;37654;51.262;17.058;2023-02-24T05:21:36;111.68;;;48.28;;
51560;SDS011;37654;51.262;17.058;2023-02-24T05:24:02;119.75;;;47.88;;
51560;SDS011;37654;51.262;17.058;2023-02-24T05:26:30;94.60;;;39.78;;
51560;SDS011;37654;51.262;17.058;2023-02-24T05:28:56;114.45;;;44.58;;
51560;SDS011;37654;51.262;17.058;2023-02-24T05:31:27;101.53;;;39.92;;
51560;SDS011;37654;51.262;17.058;2023-02-24T05:34:03;95.97;;;38.50;;
51560;SDS011;37654;51.262;17.058;2023-02-24T05:36:29;99.00;;;40.08;;
51560;SDS011;37654;51.262;17.058;2023-02-24T05:38:56;84.57;;;31.92;;
51560;SDS011;37654;51.262;17.058;2023-02-24T05:41:30;70.55;;;28.85;;
51560;SDS011;37654;51.262;17.058;2023-02-24T05:44:00;67.93;;;25.35;;
51560;SDS011;37654;51.262;17.058;2023-02-24T05:46:29;61.75;;;25.45;;
51560;SDS011;37654;51.262;17.058;2023-02-24T05:48:58;66.35;;;27.90;;
51560;SDS011;37654;51.262;17.058;2023-02-24T05:51:24;56.15;;;22.88;;
51560;SDS011;37654;51.262;17.058;2023-02-24T05:53:50;56.85;;;23.23;;
51560;SDS011;37654;51.262;17.058;2023-02-24T05:56:20;55.50;;;22.67;;
51560;SDS011;37654;51.262;17.058;2023-02-24T05:58:45;48.97;;;20.25;;
51560;SDS011;37654;51.262;17.058;2023-02-24T06:01:11;56.05;;;23.58;;
51560;SDS011;37654;51.262;17.058;2023-02-24T06:03:41;53.63;;;22.10;;
51560;SDS011;37654;51.262;17.058;2023-02-24T06:06:11;56.80;;;24.63;;
51560;SDS011;37654;51.262;17.058;2023-02-24T06:08:36;57.30;;;24.45;;
51560;SDS011;37654;51.262;17.058;2023-02-24T06:11:09;65.93;;;25.25;;
51560;SDS011;37654;51.262;17.058;2023-02-24T06:13:37;61.83;;;26.02;;
51560;SDS011;37654;51.262;17.058;2023-02-24T06:16:04;60.17;;;25.13;;
51560;SDS011;37654;51.262;17.058;2023-02-24T06:18:29;65.18;;;26.20;;
51560;SDS011;37654;51.262;17.058;2023-02-24T06:20:54;60.42;;;25.08;;
51560;SDS011;37654;51.262;17.058;2023-02-24T06:23:20;60.13;;;24.80;;
51560;SDS011;37654;51.262;17.058;2023-02-24T06:25:45;62.75;;;25.70;;
51560;SDS011;37654;51.262;17.058;2023-02-24T06:28:10;68.03;;;25.93;;
51560;SDS011;37654;51.262;17.058;2023-02-24T06:30:36;65.10;;;26.57;;
51560;SDS011;37654;51.262;17.058;2023-02-24T06:33:01;68.25;;;25.38;;
51560;SDS011;37654;51.262;17.058;2023-02-24T06:35:27;59.55;;;24.85;;
51560;SDS011;37654;51.262;17.058;2023-02-24T06:37:52;61.60;;;27.20;;
51560;SDS011;37654;51.262;17.058;2023-02-24T06:40:19;55.72;;;23.20;;
51560;SDS011;37654;51.262;17.058;2023-02-24T06:42:46;58.70;;;25.25;;
51560;SDS011;37654;51.262;17.058;2023-02-24T06:45:11;67.40;;;25.13;;
51560;SDS011;37654;51.262;17.058;2023-02-24T06:47:37;60.03;;;25.73;;
51560;SDS011;37654;51.262;17.058;2023-02-24T06:50:02;59.80;;;24.60;;
51560;SDS011;37654;51.262;17.058;2023-02-24T06:52:30;60.67;;;23.50;;
51560;SDS011;37654;51.262;17.058;2023-02-24T06:54:56;59.72;;;25.90;;
51560;SDS011;37654;51.262;17.058;2023-02-24T06:57:21;62.22;;;26.83;;
51560;SDS011;37654;51.262;17.058;2023-02-24T06:59:47;57.65;;;25.40;;
51560;SDS011;37654;51.262;17.058;2023-02-24T07:02:13;56.80;;;23.15;;
51560;SDS011;37654;51.262;17.058;2023-02-24T07:04:38;61.08;;;27.83;;
51560;SDS011;37654;51.262;17.058;2023-02-24T07:07:12;51.00;;;24.15;;
51560;SDS011;37654;51.262;17.058;2023-02-24T07:09:41;54.53;;;24.25;;
51560;SDS011;37654;51.262;17.058;2023-02-24T07:12:06;54.17;;;21.88;;
51560;SDS011;37654;51.262;17.058;2023-02-24T07:14:32;60.85;;;24.27;;
51560;SDS011;37654;51.262;17.058;2023-02-24T07:16:57;50.47;;;21.60;;
51560;SDS011;37654;51.262;17.058;2023-02-24T07:19:24;53.10;;;22.15;;
51560;SDS011;37654;51.262;17.058;2023-02-24T07:21:50;49.03;;;22.30;;
51560;SDS011;37654;51.262;17.058;2023-02-24T07:24:23;50.88;;;22.70;;
51560;SDS011;37654;51.262;17.058;2023-02-24T07:26:56;51.42;;;23.48;;
51560;SDS011;37654;51.262;17.058;2023-02-24T07:29:22;56.83;;;21.10;;
51560;SDS011;37654;51.262;17.058;2023-02-24T07:31:48;51.83;;;22.27;;
51560;SDS011;37654;51.262;17.058;2023-02-24T07:34:13;46.65;;;22.38;;
51560;SDS011;37654;51.262;17.058;2023-02-24T07:36:39;43.85;;;17.67;;
51560;SDS011;37654;51.262;17.058;2023-02-24T07:39:13;46.22;;;19.42;;
51560;SDS011;37654;51.262;17.058;2023-02-24T07:41:38;37.78;;;18.02;;
51560;SDS011;37654;51.262;17.058;2023-02-24T07:44:09;40.05;;;18.23;;
51560;SDS011;37654;51.262;17.058;2023-02-24T07:46:34;42.05;;;17.77;;
51560;SDS011;37654;51.262;17.058;2023-02-24T07:49:00;48.05;;;20.52;;
51560;SDS011;37654;51.262;17.058;2023-02-24T07:51:27;46.22;;;19.35;;
51560;SDS011;37654;51.262;17.058;2023-02-24T07:53:54;63.25;;;27.92;;
51560;SDS011;37654;51.262;17.058;2023-02-24T07:56:24;44.70;;;21.15;;
51560;SDS011;37654;51.262;17.058;2023-02-24T07:59:13;38.55;;;16.50;;
51560;SDS011;37654;51.262;17.058;2023-02-24T08:01:40;39.35;;;15.73;;
51560;SDS011;37654;51.262;17.058;2023-02-24T08:04:13;39.75;;;17.20;;
51560;SDS011;37654;51.262;17.058;2023-02-24T08:06:40;34.30;;;15.32;;
51560;SDS011;37654;51.262;17.058;2023-02-24T08:09:14;34.20;;;15.50;;
51560;SDS011;37654;51.262;17.058;2023-02-24T08:11:41;35.10;;;15.82;;
51560;SDS011;37654;51.262;17.058;2023-02-24T08:14:10;27.63;;;12.98;;
51560;SDS011;37654;51.262;17.058;2023-02-24T08:16:38;33.95;;;14.15;;
51560;SDS011;37654;51.262;17.058;2023-02-24T08:19:08;33.13;;;14.10;;
51560;SDS011;37654;51.262;17.058;2023-02-24T08:21:37;36.95;;;14.13;;
51560;SDS011;37654;51.262;17.058;2023-02-24T08:24:05;35.17;;;14.18;;
51560;SDS011;37654;51.262;17.058;2023-02-24T08:26:30;35.35;;;15.85;;
51560;SDS011;37654;51.262;17.058;2023-02-24T08:28:56;34.67;;;14.98;;
51560;SDS011;37654;51.262;17.058;2023-02-24T08:31:22;41.92;;;15.50;;
51560;SDS011;37654;51.262;17.058;2023-02-24T08:33:47;43.42;;;16.98;;
51560;SDS011;37654;51.262;17.058;2023-02-24T08:36:14;34.35;;;15.57;;
51560;SDS011;37654;51.262;17.058;2023-02-24T08:38:40;34.67;;;15.63;;
51560;SDS011;37654;51.262;17.058;2023-02-24T08:41:10;33.13;;;14.52;;
51560;SDS011;37654;51.262;17.058;2023-02-24T08:43:39;33.90;;;15.07;;
51560;SDS011;37654;51.262;17.058;2023-02-24T08:46:25;35.50;;;16.08;;
51560;SDS011;37654;51.262;17.058;2023-02-24T08:48:54;32.20;;;15.67;;
51560;SDS011;37654;51.262;17.058;2023-02-24T08:53:52;44.25;;;18.17;;
51560;SDS011;37654;51.262;17.058;2023-02-24T08:56:18;39.22;;;16.20;;
51560;SDS011;37654;51.262;17.058;2023-02-24T08:58:48;34.75;;;15.05;;
51560;SDS011;37654;51.262;17.058;2023-02-24T09:03:42;37.13;;;17.17;;
51560;SDS011;37654;51.262;17.058;2023-02-24T09:06:10;38.28;;;16.73;;
51560;SDS011;37654;51.262;17.058;2023-02-24T09:08:37;34.53;;;15.75;;
51560;SDS011;37654;51.262;17.058;2023-02-24T09:11:06;32.88;;;15.32;;
51560;SDS011;37654;51.262;17.058;2023-02-24T09:13:35;33.88;;;14.95;;
51560;SDS011;37654;51.262;17.058;2023-02-24T09:16:02;33.03;;;15.10;;
51560;SDS011;37654;51.262;17.058;2023-02-24T09:18:28;30.08;;;13.85;;
51560;SDS011;37654;51.262;17.058;2023-02-24T09:21:11;33.85;;;13.70;;
51560;SDS011;37654;51.262;17.058;2023-02-24T09:24:00;33.22;;;13.77;;
51560;SDS011;37654;51.262;17.058;2023-02-24T09:26:30;31.00;;;13.40;;
51560;SDS011;37654;51.262;17.058;2023-02-24T09:29:07;26.08;;;13.25;;
51560;SDS011;37654;51.262;17.058;2023-02-24T09:31:53;29.65;;;13.07;;
51560;SDS011;37654;51.262;17.058;2023-02-24T09:34:28;28.15;;;12.10;;
51560;SDS011;37654;51.262;17.058;2023-02-24T09:36:54;27.40;;;13.55;;
51560;SDS011;37654;51.262;17.058;2023-02-24T09:39:27;30.83;;;13.23;;
51560;SDS011;37654;51.262;17.058;2023-02-24T09:41:52;27.30;;;12.32;;
51560;SDS011;37654;51.262;17.058;2023-02-24T09:49:38;29.60;;;10.40;;
51560;SDS011;37654;51.262;17.058;2023-02-24T09:52:14;24.55;;;10.35;;
51560;SDS011;37654;51.262;17.058;2023-02-24T09:54:41;23.50;;;9.15;;
51560;SDS011;37654;51.262;17.058;2023-02-24T09:59:45;18.77;;;9.93;;
51560;SDS011;37654;51.262;17.058;2023-02-24T10:07:40;24.67;;;10.25;;
51560;SDS011;37654;51.262;17.058;2023-02-24T10:10:15;24.77;;;10.60;;
51560;SDS011;37654;51.262;17.058;2023-02-24T10:12:52;19.55;;;7.95;;
51560;SDS011;37654;51.262;17.058;2023-02-24T10:15:25;18.05;;;7.55;;
51560;SDS011;37654;51.262;17.058;2023-02-24T10:21:10;14.75;;;6.22;;
51560;SDS011;37654;51.262;17.058;2023-02-24T10:34:13;10.57;;;4.10;;
51560;SDS011;37654;51.262;17.058;2023-02-24T10:36:44;12.88;;;4.50;;
51560;SDS011;37654;51.262;17.058;2023-02-24T10:41:48;9.02;;;3.85;;
51560;SDS011;37654;51.262;17.058;2023-02-24T10:44:24;8.55;;;3.92;;
51560;SDS011;37654;51.262;17.058;2023-02-24T10:52:24;10.10;;;4.18;;
51560;SDS011;37654;51.262;17.058;2023-02-24T10:58:03;10.27;;;4.80;;
51560;SDS011;37654;51.262;17.058;2023-02-24T11:00:41;10.05;;;4.50;;
51560;SDS011;37654;51.262;17.058;2023-02-24T11:03:21;9.68;;;4.05;;
51560;SDS011;37654;51.262;17.058;2023-02-24T11:06:00;9.85;;;3.95;;
51560;SDS011;37654;51.262;17.058;2023-02-24T11:08:28;10.43;;;4.40;;
51560;SDS011;37654;51.262;17.058;2023-02-24T11:11:22;8.88;;;4.57;;
51560;SDS011;37654;51.262;17.058;2023-02-24T11:14:01;7.90;;;3.90;;
51560;SDS011;37654;51.262;17.058;2023-02-24T11:16:45;10.93;;;4.68;;
51560;SDS011;37654;51.262;17.058;2023-02-24T11:19:29;12.88;;;4.45;;
51560;SDS011;37654;51.262;17.058;2023-02-24T11:21:55;6.80;;;3.55;;
51560;SDS011;37654;51.262;17.058;2023-02-24T11:24:20;18.73;;;8.18;;
51560;SDS011;37654;51.262;17.058;2023-02-24T11:26:46;13.00;;;6.87;;
51560;SDS011;37654;51.262;17.058;2023-02-24T11:42:11;13.98;;;5.22;;
51560;SDS011;37654;51.262;17.058;2023-02-24T11:44:50;14.00;;;4.45;;
51560;SDS011;37654;51.262;17.058;2023-02-24T11:47:17;11.48;;;4.63;;
51560;SDS011;37654;51.262;17.058;2023-02-24T11:49:45;13.77;;;5.20;;
51560;SDS011;37654;51.262;17.058;2023-02-24T11:52:16;11.40;;;4.53;;
51560;SDS011;37654;51.262;17.058;2023-02-24T11:54:47;9.85;;;4.80;;
51560;SDS011;37654;51.262;17.058;2023-02-24T11:57:19;13.95;;;5.43;;
51560;SDS011;37654;51.262;17.058;2023-02-24T11:59:47;9.45;;;4.35;;
51560;SDS011;37654;51.262;17.058;2023-02-24T12:02:32;13.18;;;4.82;;
51560;SDS011;37654;51.262;17.058;2023-02-24T12:05:02;15.82;;;5.53;;
51560;SDS011;37654;51.262;17.058;2023-02-24T12:07:31;13.52;;;4.75;;
51560;SDS011;37654;51.262;17.058;2023-02-24T12:10:03;11.27;;;5.00;;
51560;SDS011;37654;51.262;17.058;2023-02-24T12:14:56;10.10;;;5.40;;
51560;SDS011;37654;51.262;17.058;2023-02-24T12:17:34;12.27;;;6.20;;
51560;SDS011;37654;51.262;17.058;2023-02-24T12:20:04;13.07;;;5.68;;
51560;SDS011;37654;51.262;17.058;2023-02-24T12:22:36;21.63;;;6.90;;
51560;SDS011;37654;51.262;17.058;2023-02-24T12:25:11;10.32;;;5.53;;
51560;SDS011;37654;51.262;17.058;2023-02-24T12:27:45;14.93;;;5.38;;
51560;SDS011;37654;51.262;17.058;2023-02-24T12:35:40;15.68;;;6.93;;
51560;SDS011;37654;51.262;17.058;2023-02-24T12:43:24;14.00;;;8.48;;
51560;SDS011;37654;51.262;17.058;2023-02-24T12:48:23;17.30;;;7.33;;
51560;SDS011;37654;51.262;17.058;2023-02-24T12:53:34;17.23;;;8.57;;
51560;SDS011;37654;51.262;17.058;2023-02-24T12:56:07;12.82;;;8.18;;
51560;SDS011;37654;51.262;17.058;2023-02-24T13:03:32;12.18;;;7.20;;
51560;SDS011;37654;51.262;17.058;2023-02-24T13:06:44;14.40;;;8.43;;
51560;SDS011;37654;51.262;17.058;2023-02-24T13:08:55;14.85;;;8.07;;
51560;SDS011;37654;51.262;17.058;2023-02-24T13:14:03;13.38;;;7.00;;
51560;SDS011;37654;51.262;17.058;2023-02-24T13:16:32;16.48;;;8.98;;
51560;SDS011;37654;51.262;17.058;2023-02-24T13:19:04;17.77;;;9.65;;
51560;SDS011;37654;51.262;17.058;2023-02-24T13:21:30;19.08;;;10.55;;
51560;SDS011;37654;51.262;17.058;2023-02-24T13:24:00;18.10;;;8.25;;
51560;SDS011;37654;51.262;17.058;2023-02-24T13:26:26;14.13;;;8.43;;
51560;SDS011;37654;51.262;17.058;2023-02-24T13:31:24;13.43;;;7.35;;
51560;SDS011;37654;51.262;17.058;2023-02-24T13:33:50;14.45;;;7.03;;
51560;SDS011;37654;51.262;17.058;2023-02-24T13:36:17;20.20;;;7.18;;
51560;SDS011;37654;51.262;17.058;2023-02-24T13:38:47;17.42;;;8.70;;
51560;SDS011;37654;51.262;17.058;2023-02-24T13:43:52;14.68;;;7.97;;
51560;SDS011;37654;51.262;17.058;2023-02-24T13:46:17;15.15;;;6.72;;
51560;SDS011;37654;51.262;17.058;2023-02-24T13:56:32;16.88;;;8.45;;
51560;SDS011;37654;51.262;17.058;2023-02-24T14:02:01;21.83;;;11.55;;
51560;SDS011;37654;51.262;17.058;2023-02-24T14:04:49;12.38;;;7.82;;
51560;SDS011;37654;51.262;17.058;2023-02-24T14:07:36;9.07;;;5.28;;
51560;SDS011;37654;51.262;17.058;2023-02-24T14:10:15;9.63;;;4.00;;
51560;SDS011;37654;51.262;17.058;2023-02-24T14:13:05;12.43;;;3.30;;
51560;SDS011;37654;51.262;17.058;2023-02-24T14:16:13;7.65;;;3.40;;
51560;SDS011;37654;51.262;17.058;2023-02-24T14:19:23;10.43;;;4.28;;
51560;SDS011;37654;51.262;17.058;2023-02-24T14:21:55;8.43;;;4.35;;
51560;SDS011;37654;51.262;17.058;2023-02-24T14:25:00;14.25;;;6.80;;
51560;SDS011;37654;51.262;17.058;2023-02-24T14:27:30;9.93;;;4.35;;
51560;SDS011;37654;51.262;17.058;2023-02-24T14:29:56;29.33;;;10.80;;
51560;SDS011;37654;51.262;17.058;2023-02-24T14:32:25;14.98;;;6.65;;
51560;SDS011;37654;51.262;17.058;2023-02-24T14:34:51;12.63;;;4.05;;
51560;SDS011;37654;51.262;17.058;2023-02-24T14:37:20;16.58;;;5.40;;
51560;SDS011;37654;51.262;17.058;2023-02-24T14:39:50;18.27;;;7.38;;
51560;SDS011;37654;51.262;17.058;2023-02-24T14:42:17;22.15;;;9.80;;
51560;SDS011;37654;51.262;17.058;2023-02-24T14:44:50;16.08;;;6.45;;
51560;SDS011;37654;51.262;17.058;2023-02-24T14:47:16;12.45;;;4.35;;
51560;SDS011;37654;51.262;17.058;2023-02-24T14:57:23;19.67;;;10.50;;
51560;SDS011;37654;51.262;17.058;2023-02-24T14:59:51;20.55;;;9.70;;
51560;SDS011;37654;51.262;17.058;2023-02-24T15:02:19;19.95;;;12.02;;
51560;SDS011;37654;51.262;17.058;2023-02-24T15:04:45;17.67;;;9.07;;
51560;SDS011;37654;51.262;17.058;2023-02-24T15:09:50;25.38;;;10.38;;
51560;SDS011;37654;51.262;17.058;2023-02-24T15:12:21;26.48;;;11.52;;
51560;SDS011;37654;51.262;17.058;2023-02-24T15:14:52;21.33;;;9.38;;
51560;SDS011;37654;51.262;17.058;2023-02-24T15:17:19;24.70;;;10.13;;
51560;SDS011;37654;51.262;17.058;2023-02-24T15:19:44;14.85;;;5.88;;
51560;SDS011;37654;51.262;17.058;2023-02-24T15:24:47;8.70;;;4.00;;
51560;SDS011;37654;51.262;17.058;2023-02-24T15:29:37;5.13;;;2.60;;
51560;SDS011;37654;51.262;17.058;2023-02-24T15:32:03;7.75;;;3.28;;
51560;SDS011;37654;51.262;17.058;2023-02-24T15:34:31;7.95;;;3.63;;
51560;SDS011;37654;51.262;17.058;2023-02-24T15:37:00;8.60;;;3.78;;
51560;SDS011;37654;51.262;17.058;2023-02-24T15:39:27;10.63;;;6.25;;
51560;SDS011;37654;51.262;17.058;2023-02-24T15:44:34;19.13;;;8.60;;
51560;SDS011;37654;51.262;17.058;2023-02-24T15:47:11;15.75;;;6.65;;
51560;SDS011;37654;51.262;17.058;2023-02-24T15:49:41;16.48;;;6.10;;
51560;SDS011;37654;51.262;17.058;2023-02-24T15:52:07;20.17;;;9.25;;
51560;SDS011;37654;51.262;17.058;2023-02-24T15:54:34;16.23;;;6.30;;
51560;SDS011;37654;51.262;17.058;2023-02-24T15:57:01;21.92;;;8.38;;
51560;SDS011;37654;51.262;17.058;2023-02-24T15:59:27;15.15;;;7.32;;
51560;SDS011;37654;51.262;17.058;2023-02-24T16:01:52;24.17;;;10.52;;
51560;SDS011;37654;51.262;17.058;2023-02-24T16:04:17;23.98;;;12.55;;
51560;SDS011;37654;51.262;17.058;2023-02-24T16:06:44;29.85;;;12.75;;
51560;SDS011;37654;51.262;17.058;2023-02-24T16:09:22;26.63;;;12.23;;
51560;SDS011;37654;51.262;17.058;2023-02-24T16:11:49;38.60;;;17.27;;
51560;SDS011;37654;51.262;17.058;2023-02-24T16:14:15;28.58;;;13.15;;
51560;SDS011;37654;51.262;17.058;2023-02-24T16:16:41;33.92;;;12.07;;
51560;SDS011;37654;51.262;17.058;2023-02-24T16:19:06;35.05;;;12.13;;
51560;SDS011;37654;51.262;17.058;2023-02-24T16:21:32;31.23;;;12.35;;
51560;SDS011;37654;51.262;17.058;2023-02-24T16:23:57;40.72;;;15.52;;
51560;SDS011;37654;51.262;17.058;2023-02-24T16:26:23;41.13;;;14.73;;
51560;SDS011;37654;51.262;17.058;2023-02-24T16:28:55;21.35;;;9.50;;
51560;SDS011;37654;51.262;17.058;2023-02-24T16:31:21;24.83;;;9.82;;
51560;SDS011;37654;51.262;17.058;2023-02-24T16:33:46;30.77;;;11.00;;
51560;SDS011;37654;51.262;17.058;2023-02-24T16:36:12;12.77;;;5.30;;
51560;SDS011;37654;51.262;17.058;2023-02-24T16:38:37;16.30;;;7.38;;
51560;SDS011;37654;51.262;17.058;2023-02-24T16:41:03;10.32;;;4.60;;
51560;SDS011;37654;51.262;17.058;2023-02-24T16:43:28;14.07;;;4.68;;
51560;SDS011;37654;51.262;17.058;2023-02-24T16:45:54;11.10;;;4.55;;
51560;SDS011;37654;51.262;17.058;2023-02-24T16:48:24;9.93;;;4.57;;
51560;SDS011;37654;51.262;17.058;2023-02-24T16:50:50;14.40;;;4.57;;
51560;SDS011;37654;51.262;17.058;2023-02-24T16:53:17;11.27;;;5.22;;
51560;SDS011;37654;51.262;17.058;2023-02-24T16:55:43;15.60;;;5.03;;
51560;SDS011;37654;51.262;17.058;2023-02-24T16:58:12;12.70;;;5.55;;
51560;SDS011;37654;51.262;17.058;2023-02-24T17:00:38;12.07;;;5.22;;
51560;SDS011;37654;51.262;17.058;2023-02-24T17:03:06;11.60;;;5.63;;
51560;SDS011;37654;51.262;17.058;2023-02-24T17:05:36;12.18;;;5.20;;
51560;SDS011;37654;51.262;17.058;2023-02-24T17:08:02;14.05;;;5.97;;